Time;durP1;ratioP1;P1;durP2;ratioP2;P2;SDS_P1;SDS_P2;PMS_P1;PMS_P2;Temp;Humidity;BMP_temperature;BMP_pressure;BME280_temperature;BME280_humidity;BME280_pressure;Samples;Min_cycle;Max_cycle;Signal;HPM_P1;HPM_P2
2022/06/30 00:02:46;;;;;;;;;;;;;;;21.38;61.86;100005.34;1805178;79;21185;-79
2022/06/30 00:05:52;;;;;;;11.68;4.40;;;;;;;21.28;62.21;99999.04;1802599;79;20212;-79
2022/06/30 00:08:59;;;;;;;10.20;4.53;;;;;;;21.16;62.71;100000.51;1763176;81;21189;-80
2022/06/30 00:12:05;;;;;;;14.70;5.03;;;;;;;21.07;63.13;100008.98;1802875;79;21328;-80
2022/06/30 00:15:10;;;;;;;11.63;5.65;;;;;;;20.98;63.51;100006.31;1767127;81;21487;-80
2022/06/30 00:18:16;;;;;;;9.83;6.05;;;;;;;20.92;64.09;100026.80;1747718;82;21181;-80
2022/06/30 00:21:24;;;;;;;11.78;5.58;;;;;;;20.79;64.88;100027.95;1813449;79;21176;-79
2022/06/30 00:24:30;;;;;;;8.15;5.33;;;;;;;20.60;65.13;100023.70;1776465;80;21752;-80
2022/06/30 00:27:36;;;;;;;10.85;5.33;;;;;;;20.49;65.40;100007.39;1813522;79;21176;-80
2022/06/30 00:30:43;;;;;;;13.38;5.42;;;;;;;20.43;65.59;100004.20;1774962;81;21189;-79
2022/06/30 00:33:50;;;;;;;11.55;6.05;;;;;;;20.37;65.83;100010.20;1812843;79;21225;-80
2022/06/30 00:36:55;;;;;;;10.35;5.72;;;;;;;20.34;66.05;100016.25;1777905;80;21177;-80
2022/06/30 00:40:00;;;;;;;10.25;5.78;;;;;;;20.31;66.26;100021.45;1813597;79;21240;-79
2022/06/30 00:43:06;;;;;;;11.53;5.85;;;;;;;20.27;66.48;100024.41;1777784;80;21193;-79
2022/06/30 00:46:11;;;;;;;12.30;6.20;;;;;;;20.17;66.73;100018.95;1775035;81;21180;-80
2022/06/30 00:49:17;;;;;;;10.72;5.87;;;;;;;20.08;67.02;100024.59;1813571;79;21157;-80
2022/06/30 00:52:23;;;;;;;12.98;6.15;;;;;;;19.98;67.15;100014.66;1774972;81;21197;-80
2022/06/30 00:55:30;;;;;;;12.35;5.80;;;;;;;19.94;67.29;100005.69;1813596;79;21704;-80
2022/06/30 00:58:35;;;;;;;9.05;5.67;;;;;;;19.85;67.53;99996.34;1777039;80;21216;-79
2022/06/30 01:01:40;;;;;;;19.32;5.97;;;;;;;19.79;67.72;100006.20;1813637;79;21220;-80
2022/06/30 01:04:48;;;;;;;9.53;6.12;;;;;;;19.72;68.22;100001.34;1774026;81;21189;-79
2022/06/30 01:07:54;;;;;;;14.35;6.53;;;;;;;19.64;68.78;99990.91;1813737;79;21762;-79
2022/06/30 01:14:24;;;;;;;17.20;6.30;;;;;;;19.51;69.50;99973.09;1774348;81;21339;-79
2022/06/30 01:17:29;;;;;;;13.43;6.83;;;;;;;19.48;69.76;99967.19;1807146;79;21204;-79
2022/06/30 01:20:38;;;;;;;11.38;6.67;;;;;;;19.43;69.91;99959.59;1766695;81;21273;-80
2022/06/30 01:23:43;;;;;;;13.18;6.35;;;;;;;19.39;70.09;99958.42;1764738;81;21201;-80
2022/06/30 01:26:50;;;;;;;10.08;5.92;;;;;;;19.35;70.34;99955.83;1802828;79;21176;-80
2022/06/30 01:29:57;;;;;;;14.18;6.37;;;;;;;19.29;70.46;99951.23;1765661;81;21733;-80
2022/06/30 01:33:03;;;;;;;14.20;6.40;;;;;;;19.24;70.59;99951.11;1801134;79;21558;-80
2022/06/30 01:36:11;;;;;;;12.63;6.60;;;;;;;19.22;70.78;99952.75;1763623;81;21217;-80
2022/06/30 01:39:17;;;;;;;16.37;6.90;;;;;;;19.20;70.91;99949.39;1802697;79;21177;-80
2022/06/30 01:42:27;;;;;;;14.25;7.22;;;;;;;19.18;71.06;99963.17;1767036;81;21173;-80
2022/06/30 01:45:33;;;;;;;19.23;6.83;;;;;;;19.17;71.14;99972.03;1763844;81;21248;-80
2022/06/30 01:48:39;;;;;;;19.65;7.45;;;;;;;19.15;71.37;99979.22;1802574;79;21173;-80
2022/06/30 01:51:45;;;;;;;16.23;7.95;;;;;;;19.13;71.91;99986.08;1766199;81;21248;-80
2022/06/30 01:54:52;;;;;;;15.93;7.15;;;;;;;19.08;72.11;99982.64;1801206;79;21209;-80
2022/06/30 01:57:56;;;;;;;14.33;6.55;;;;;;;19.06;72.14;99982.05;1763133;81;21224;-80
2022/06/30 02:01:02;;;;;;;12.58;7.50;;;;;;;19.03;72.18;99988.60;1802698;79;21252;-80
2022/06/30 02:07:31;;;;;;;13.93;7.75;;;;;;;18.98;72.49;99995.41;1801574;79;21220;-80
2022/06/30 02:10:37;;;;;;;13.10;6.58;;;;;;;18.95;72.76;99999.48;1764837;81;21189;-80
2022/06/30 02:13:43;;;;;;;14.03;6.25;;;;;;;18.95;72.89;100007.80;1802733;79;21187;-80
2022/06/30 02:16:49;;;;;;;12.58;6.70;;;;;;;18.96;72.92;100009.52;1767029;81;21225;-80
2022/06/30 02:19:56;;;;;;;17.45;7.30;;;;;;;19.00;73.08;100016.23;1801181;79;21747;-80
2022/06/30 02:23:08;;;;;;;16.25;6.97;;;;;;;19.03;73.13;100017.16;1764329;81;21324;-80
2022/06/30 02:26:14;;;;;;;12.80;6.75;;;;;;;19.10;73.18;100017.91;1803120;79;21205;-80
2022/06/30 02:29:21;;;;;;;17.67;7.62;;;;;;;19.13;73.06;100026.27;1764623;81;21181;-80
2022/06/30 02:32:28;;;;;;;19.65;6.65;;;;;;;19.13;73.12;100029.88;1802633;79;21185;-80
2022/06/30 02:35:35;;;;;;;13.53;6.33;;;;;;;19.13;73.04;100028.50;1766294;81;21214;-79
2022/06/30 02:38:41;;;;;;;12.95;6.92;;;;;;;19.16;73.06;100018.88;1764519;81;21217;-80
2022/06/30 02:41:47;;;;;;;12.43;6.58;;;;;;;19.22;73.12;100018.45;1802638;79;21181;-80
2022/06/30 02:44:52;;;;;;;12.98;6.70;;;;;;;19.29;73.18;100023.31;1767190;81;21229;-80
2022/06/30 02:47:59;;;;;;;15.72;6.80;;;;;;;19.32;73.47;100022.84;1802751;79;21178;-80
2022/06/30 02:51:05;;;;;;;12.90;7.08;;;;;;;19.32;73.93;100032.00;1785152;79;21173;-80
2022/06/30 02:54:10;;;;;;;14.38;6.25;;;;;;;19.29;74.61;100060.23;1764557;81;21182;-80
2022/06/30 02:57:17;;;;;;;14.50;7.30;;;;;;;19.24;74.80;100064.23;1802780;79;21223;-80
2022/06/30 03:00:24;;;;;;;22.60;9.13;;;;;;;19.25;74.95;100064.57;1764533;81;21744;-80
2022/06/30 03:03:31;;;;;;;25.35;9.08;;;;;;;19.28;75.72;100062.69;1802773;79;21180;-80
2022/06/30 03:06:37;;;;;;;26.50;10.82;;;;;;;19.30;76.94;100075.78;1763783;81;21185;-80
2022/06/30 03:09:43;;;;;;;27.22;11.05;;;;;;;19.30;78.75;100063.30;1801107;79;21212;-80
2022/06/30 03:12:49;;;;;;;25.52;11.70;;;;;;;19.32;80.07;100078.31;1766963;81;21178;-80
2022/06/30 03:15:55;;;;;;;25.88;11.08;;;;;;;19.35;81.49;100086.16;1801138;79;21217;-80
2022/06/30 03:19:01;;;;;;;27.07;11.03;;;;;;;19.39;82.17;100077.67;1767829;80;21189;-80
2022/06/30 03:22:08;;;;;;;23.65;11.68;;;;;;;19.45;82.52;100075.86;1777433;80;21157;-79
2022/06/30 03:25:14;;;;;;;34.10;12.07;;;;;;;19.53;82.36;100072.73;1759120;81;21244;-80
2022/06/30 03:28:14;;;;;;;26.50;12.88;;;;;;;19.59;82.19;100063.44;1779098;80;21169;-80
2022/06/30 03:31:19;;;;;;;27.77;12.40;;;;;;;19.65;81.94;100062.49;1778959;80;21216;-80
2022/06/30 03:34:25;;;;;;;21.85;12.30;;;;;;;19.70;81.64;100062.61;1778959;80;21174;-80
2022/06/30 03:37:31;;;;;;;38.28;14.40;;;;;;;19.79;81.28;100065.86;1757563;81;21252;-80
2022/06/30 03:40:36;;;;;;;40.12;16.80;;;;;;;19.85;80.94;100056.01;1759089;81;21241;-80
2022/06/30 03:43:42;;;;;;;38.92;18.17;;;;;;;19.95;81.27;100055.94;1759060;81;21192;-80
2022/06/30 03:46:48;;;;;;;40.63;18.98;;;;;;;20.02;81.64;100053.89;1758477;81;21197;-80
2022/06/30 03:49:55;;;;;;;34.92;19.02;;;;;;;20.08;82.82;100053.73;1759173;81;21193;-80
2022/06/30 03:52:54;;;;;;;39.63;18.42;;;;;;;20.08;83.93;100052.35;1758022;81;21221;-80
2022/06/30 03:56:00;;;;;;;37.80;19.07;;;;;;;20.05;84.95;100040.37;1759030;81;21866;-80
2022/06/30 03:59:05;;;;;;;31.12;17.40;;;;;;;20.01;86.46;100025.29;1758046;81;21256;-80
2022/06/30 04:02:15;;;;;;;39.35;17.67;;;;;;;19.94;87.69;100027.89;1778934;80;21174;-80
2022/06/30 04:05:20;;;;;;;32.25;17.25;;;;;;;19.81;88.26;100034.02;1779283;80;21173;-80
2022/06/30 04:08:26;;;;;;;32.10;16.95;;;;;;;19.73;89.12;100036.33;1758827;81;21224;-80
2022/06/30 04:11:32;;;;;;;25.85;15.15;;;;;;;19.68;89.45;100037.05;1757956;81;21196;-80
2022/06/30 04:14:39;;;;;;;28.35;14.63;;;;;;;19.70;89.89;100048.73;1757855;81;21203;-80
2022/06/30 04:17:47;;;;;;;24.40;13.22;;;;;;;19.74;90.71;100044.94;1758037;81;21747;-80
2022/06/30 04:20:53;;;;;;;28.50;14.18;;;;;;;19.80;90.76;100042.02;1772794;80;21257;-80
2022/06/30 04:24:00;;;;;;;25.20;13.65;;;;;;;19.86;90.71;100038.84;1745004;82;21265;-80
2022/06/30 04:27:05;;;;;;;25.02;13.48;;;;;;;19.95;89.85;100042.06;1745085;82;21217;-80
2022/06/30 04:30:10;;;;;;;33.75;13.08;;;;;;;19.99;89.32;100042.72;1745634;82;21194;-80
2022/06/30 04:33:09;;;;;;;31.02;14.28;;;;;;;20.05;88.78;100035.36;1745591;82;21193;-80
2022/06/30 04:36:02;;;;;;;27.20;15.10;;;;;;;20.05;88.57;100026.49;1768302;81;21183;-80
2022/06/30 04:39:09;;;;;;;28.17;15.55;;;;;;;20.04;87.72;100024.81;1745111;82;21272;-80
2022/06/30 04:42:14;;;;;;;40.00;15.75;;;;;;;20.06;87.27;100031.49;1768300;81;21170;-80
2022/06/30 04:45:20;;;;;;;26.27;14.07;;;;;;;20.10;86.42;100030.76;1745548;82;21224;-80
2022/06/30 04:48:19;;;;;;;24.82;13.22;;;;;;;20.16;85.43;100035.87;1744437;82;21177;-80
2022/06/30 04:51:26;;;;;;;26.10;13.58;;;;;;;20.18;84.74;100035.06;1745525;82;21256;-80
2022/06/30 04:54:32;;;;;;;23.35;12.37;;;;;;;20.26;84.10;100043.56;1744627;82;21224;-80
2022/06/30 04:57:38;;;;;;;26.02;10.93;;;;;;;20.33;83.21;100041.50;1745045;82;21272;-80
2022/06/30 05:00:45;;;;;;;22.70;11.65;;;;;;;20.41;82.58;100039.70;1745656;82;21173;-80
2022/06/30 05:03:51;;;;;;;25.50;11.15;;;;;;;20.50;82.10;100040.18;1745651;82;22059;-80
2022/06/30 05:06:58;;;;;;;33.10;10.75;;;;;;;20.59;81.53;100052.04;1745548;82;21193;-80
2022/06/30 05:10:06;;;;;;;22.20;10.63;;;;;;;20.73;80.38;100051.19;1767518;81;21864;-80
2022/06/30 05:13:07;;;;;;;13.68;8.70;;;;;;;20.86;80.44;100043.94;1743087;82;21197;-80
2022/06/30 05:16:12;;;;;;;22.40;9.43;;;;;;;20.92;79.34;100044.86;1716172;83;21209;-80
2022/06/30 05:19:18;;;;;;;23.18;9.43;;;;;;;20.96;78.45;100044.66;1737173;82;21198;-80
2022/06/30 05:22:23;;;;;;;14.13;9.18;;;;;;;20.99;77.11;100040.00;1742790;82;21212;-81
2022/06/30 05:28:53;;;;;;;16.67;9.00;;;;;;;21.04;75.85;100039.25;1747177;82;21201;-81
2022/06/30 05:31:59;;;;;;;27.80;9.35;;;;;;;20.99;74.74;100033.60;1748342;82;21169;-80
2022/06/30 05:35:04;;;;;;;26.50;9.70;;;;;;;20.99;74.63;100030.82;1748501;82;21189;-80
2022/06/30 05:38:10;;;;;;;20.77;9.98;;;;;;;21.01;74.47;100032.23;1747667;82;21224;-80
2022/06/30 05:41:09;;;;;;;19.62;9.68;;;;;;;21.03;74.00;100035.62;1727398;81;21198;-80
2022/06/30 05:44:02;;;;;;;17.32;9.55;;;;;;;21.03;73.35;100035.62;1717919;83;21905;-80
2022/06/30 05:46:48;;;;;;;23.15;9.73;;;;;;;21.06;73.33;100045.39;1716369;83;21266;-80
2022/06/30 05:49:40;;;;;;;20.23;9.90;;;;;;;21.09;73.13;100044.34;1747611;82;21245;-80
2022/06/30 05:52:27;;;;;;;15.13;8.93;;;;;;;21.10;72.79;100048.80;1742901;82;21228;-80
2022/06/30 05:55:19;;;;;;;16.07;8.80;;;;;;;21.15;72.65;100060.01;1759170;81;21232;-80
2022/06/30 05:58:25;;;;;;;22.67;9.98;;;;;;;21.22;71.38;100061.25;1759104;81;21322;-80
2022/06/30 06:01:31;;;;;;;16.73;9.93;;;;;;;21.25;70.79;100062.12;1759693;81;21236;-80
2022/06/30 06:04:35;;;;;;;19.55;9.58;;;;;;;21.29;70.52;100054.96;1778987;80;21220;-80
2022/06/30 06:07:42;;;;;;;19.20;9.63;;;;;;;21.34;70.18;100059.80;1779030;80;21185;-80
2022/06/30 06:10:48;;;;;;;25.92;9.13;;;;;;;21.41;70.32;100060.48;1778341;80;21224;-80
2022/06/30 06:13:55;;;;;;;22.05;9.85;;;;;;;21.48;70.21;100065.31;1779035;80;21545;-80
2022/06/30 06:16:53;;;;;;;18.15;9.25;;;;;;;21.60;70.43;100074.42;1779014;80;21616;-80
2022/06/30 06:19:48;;;;;;;16.35;10.03;;;;;;;21.72;70.44;100067.90;1777716;80;21228;-80
2022/06/30 06:22:54;;;;;;;15.68;10.18;;;;;;;21.78;70.75;100064.92;1773146;80;21212;-80
2022/06/30 06:26:00;;;;;;;20.72;9.85;;;;;;;21.88;70.31;100058.69;1769768;81;21257;-80
2022/06/30 06:29:06;;;;;;;18.85;10.13;;;;;;;22.00;69.36;100059.95;1769669;81;21174;-80
2022/06/30 06:32:13;;;;;;;20.05;9.83;;;;;;;22.08;68.12;100053.94;1732666;81;21173;-80
2022/06/30 06:35:20;;;;;;;14.75;8.05;;;;;;;22.19;67.81;100051.60;1728224;82;21198;-80
2022/06/30 06:38:26;;;;;;;21.82;9.35;;;;;;;22.29;67.14;100043.92;1727850;83;21798;-80
2022/06/30 06:41:31;;;;;;;24.30;9.98;;;;;;;22.30;66.49;100045.59;1729560;81;21277;-80
2022/06/30 06:44:36;;;;;;;22.45;10.05;;;;;;;22.32;67.42;100048.98;1728168;83;21236;-80
2022/06/30 06:47:42;;;;;;;21.68;9.03;;;;;;;22.34;68.02;100049.00;1727984;83;21240;-80
2022/06/30 06:50:47;;;;;;;18.55;8.75;;;;;;;22.34;67.97;100047.61;1727965;83;21189;-80
2022/06/30 06:53:55;;;;;;;20.02;8.23;;;;;;;22.33;67.87;100036.17;1728121;83;21182;-80
2022/06/30 06:57:01;;;;;;;19.17;8.38;;;;;;;22.29;67.80;100036.95;1728027;82;21273;-80
2022/06/30 07:00:06;;;;;;;11.75;7.78;;;;;;;22.23;67.81;100049.15;1729171;81;21221;-80
2022/06/30 07:03:16;;;;;;;15.35;7.97;;;;;;;22.23;67.96;100046.36;1728526;83;21830;-80
2022/06/30 07:06:21;;;;;;;13.40;8.05;;;;;;;22.35;68.46;100045.69;1728466;83;21755;-80
2022/06/30 07:09:27;;;;;;;11.28;7.10;;;;;;;22.47;68.17;100048.31;1728039;83;21221;-80
2022/06/30 07:12:34;;;;;;;15.20;7.53;;;;;;;22.61;68.05;100049.04;1727338;83;21230;-80
2022/06/30 07:15:40;;;;;;;20.70;8.10;;;;;;;22.82;65.70;100052.91;1733025;82;21228;-80
2022/06/30 07:18:46;;;;;;;18.00;7.40;;;;;;;23.04;64.14;100054.24;1769601;81;21189;-80
2022/06/30 07:21:52;;;;;;;16.93;7.80;;;;;;;23.28;62.94;100049.70;1798468;79;21189;-80
2022/06/30 07:24:58;;;;;;;19.23;7.53;;;;;;;23.62;61.40;100052.50;1799618;79;21212;-80
2022/06/30 07:28:04;;;;;;;15.08;7.70;;;;;;;23.93;59.98;100049.91;1800428;79;21209;-80
2022/06/30 07:31:12;;;;;;;12.53;7.10;;;;;;;24.15;59.33;100054.79;1802243;79;21232;-80
2022/06/30 07:34:19;;;;;;;13.15;8.10;;;;;;;24.35;58.75;100042.84;1792348;79;21157;-80
2022/06/30 07:37:24;;;;;;;12.82;8.15;;;;;;;24.51;57.68;100038.73;1800874;79;21240;-80
2022/06/30 07:40:30;;;;;;;27.25;8.18;;;;;;;24.62;57.83;100052.48;1799809;79;21259;-80
2022/06/30 07:43:36;;;;;;;15.60;7.90;;;;;;;24.80;57.37;100051.13;1796304;79;21244;-80
2022/06/30 07:46:38;;;;;;;16.23;8.55;;;;;;;24.89;56.65;100036.88;1773298;80;21902;-80
2022/06/30 07:49:46;;;;;;;12.93;7.37;;;;;;;25.00;56.37;100043.32;1740669;81;21185;-80
2022/06/30 07:52:52;;;;;;;11.93;7.58;;;;;;;25.19;54.50;100046.45;1789646;79;21597;-80
2022/06/30 07:55:58;;;;;;;13.30;8.03;;;;;;;25.34;53.87;100054.84;1790350;80;21878;-80
2022/06/30 07:59:03;;;;;;;14.23;7.95;;;;;;;25.39;53.10;100042.80;1789584;79;21230;-80
2022/06/30 08:02:09;;;;;;;18.00;7.30;;;;;;;25.42;53.50;100052.05;1769314;81;21586;-79
2022/06/30 08:05:16;;;;;;;12.90;6.80;;;;;;;25.48;52.82;100054.55;1713954;82;21831;-80
2022/06/30 08:08:21;;;;;;;10.45;7.20;;;;;;;25.59;52.39;100051.17;1770099;81;21165;-80
2022/06/30 08:11:29;;;;;;;13.18;6.60;;;;;;;25.80;52.38;100047.82;1768816;81;21197;-80
2022/06/30 08:14:35;;;;;;;14.45;6.70;;;;;;;25.95;51.05;100048.34;1771945;79;21158;-80
2022/06/30 08:17:42;;;;;;;18.70;7.10;;;;;;;26.05;50.52;100039.90;1791316;80;21189;-79
2022/06/30 08:20:48;;;;;;;14.28;7.12;;;;;;;26.11;50.51;100042.98;1799576;79;21839;-79
2022/06/30 08:23:53;;;;;;;17.57;7.78;;;;;;;26.22;49.71;100037.60;1785982;79;21185;-79
2022/06/30 08:27:02;;;;;;;13.65;7.20;;;;;;;26.30;49.34;100045.13;1776879;79;21168;-79
2022/06/30 08:30:06;;;;;;;20.30;7.72;;;;;;;26.26;49.58;100042.08;1779253;80;21184;-79
2022/06/30 08:33:12;;;;;;;15.08;7.20;;;;;;;26.22;49.04;100040.41;1778596;80;21172;-78
2022/06/30 08:36:17;;;;;;;15.03;7.60;;;;;;;26.15;49.15;100045.47;1777833;80;21223;-80
2022/06/30 08:42:48;;;;;;;15.83;7.92;;;;;;;26.05;48.74;100041.30;1800140;79;21779;-79
2022/06/30 08:45:55;;;;;;;15.48;8.28;;;;;;;26.07;48.07;100042.44;1801826;79;21185;-79
2022/06/30 08:49:05;;;;;;;18.80;7.17;;;;;;;26.10;47.19;100048.85;1801787;79;21165;-79
2022/06/30 08:52:05;;;;;;;14.70;6.90;;;;;;;26.11;47.10;100041.58;1779226;79;21173;-79
2022/06/30 08:54:59;;;;;;;16.55;7.67;;;;;;;26.20;46.92;100041.23;1802558;79;21233;-78
2022/06/30 08:57:48;;;;;;;25.65;7.40;;;;;;;26.30;46.73;100049.33;1800000;79;21808;-80
2022/06/30 09:00:42;;;;;;;14.73;7.28;;;;;;;26.47;46.40;100048.45;1800258;79;21220;-79
2022/06/30 09:03:49;;;;;;;10.32;6.87;;;;;;;26.69;46.07;100047.50;1802427;79;21196;-79
2022/06/30 09:06:54;;;;;;;17.25;6.53;;;;;;;26.84;45.82;100049.37;1802091;79;21224;-79
2022/06/30 09:09:59;;;;;;;16.02;7.55;;;;;;;26.95;45.82;100040.30;1801972;79;21486;-79
2022/06/30 09:13:08;;;;;;;19.37;7.50;;;;;;;26.95;45.82;100040.30;1802614;79;21232;-79
2022/06/30 09:16:14;;;;;;;16.93;7.05;;;;;;;27.03;45.25;100043.91;1802464;79;21200;-79
2022/06/30 09:19:20;;;;;;;20.23;6.87;;;;;;;27.12;44.66;100041.34;1774393;79;21177;-79
2022/06/30 09:22:29;;;;;;;15.68;6.75;;;;;;;27.10;44.99;100032.36;1801534;79;21209;-80
2022/06/30 09:25:37;;;;;;;14.43;7.30;;;;;;;27.15;44.99;100042.17;1800426;79;21251;-80
2022/06/30 09:28:56;;;;;;;14.25;6.97;;;;;;;27.22;45.01;100042.09;1802856;79;21206;-80
2022/06/30 09:32:03;;;;;;;16.00;6.62;;;;;;;27.28;44.46;100032.22;1801430;79;21178;-80
2022/06/30 09:35:16;;;;;;;19.05;6.87;;;;;;;27.31;44.73;100035.86;1780010;79;21165;-80
2022/06/30 09:38:22;;;;;;;17.35;7.05;;;;;;;27.28;44.91;100039.24;1803149;79;21165;-80
2022/06/30 09:41:43;;;;;;;13.98;7.12;;;;;;;27.37;45.04;100030.46;1802911;79;21256;-80
2022/06/30 09:44:53;;;;;;;14.58;6.95;;;;;;;27.43;44.94;100028.73;1802078;79;21328;-79
2022/06/30 09:48:02;;;;;;;24.27;6.57;;;;;;;27.66;44.63;100016.41;1782031;79;21220;-79
2022/06/30 09:51:11;;;;;;;12.30;6.45;;;;;;;28.04;44.37;100017.42;1803099;79;21334;-79
2022/06/30 09:54:18;;;;;;;12.55;6.22;;;;;;;28.32;43.61;100017.64;1801667;79;21197;-79
2022/06/30 09:57:24;;;;;;;21.35;6.25;;;;;;;28.42;43.11;100024.56;1803171;79;21185;-79
2022/06/30 10:00:31;;;;;;;10.55;6.12;;;;;;;28.32;43.09;100021.86;1801831;79;21180;-80
2022/06/30 10:03:37;;;;;;;21.73;6.75;;;;;;;28.28;43.21;100020.24;1803248;79;21165;-79
2022/06/30 10:06:43;;;;;;;11.45;5.72;;;;;;;28.36;43.26;100022.97;1803221;79;21232;-79
2022/06/30 10:09:50;;;;;;;13.40;6.28;;;;;;;28.45;43.08;100029.02;1748558;80;21720;-79
2022/06/30 10:12:56;;;;;;;12.65;6.62;;;;;;;28.40;43.47;100028.27;1790858;79;21176;-79
2022/06/30 10:16:02;;;;;;;16.65;6.17;;;;;;;28.28;43.40;100026.70;1787577;79;21176;-79
2022/06/30 10:19:10;;;;;;;15.23;6.40;;;;;;;28.39;43.95;100022.38;1788713;79;21177;-79
2022/06/30 10:22:16;;;;;;;14.63;6.55;;;;;;;28.58;43.24;100016.20;1787111;79;21223;-79
2022/06/30 10:25:23;;;;;;;15.00;6.17;;;;;;;28.78;42.72;100013.08;1787670;79;21218;-79
2022/06/30 10:28:33;;;;;;;12.68;5.70;;;;;;;28.97;42.36;100019.30;1754467;80;21172;-80
2022/06/30 10:31:48;;;;;;;10.65;5.80;;;;;;;29.19;42.10;100008.23;1753091;81;21148;-80
2022/06/30 10:35:02;;;;;;;17.45;6.25;;;;;;;29.37;41.71;100013.57;1752818;81;21173;-79
2022/06/30 10:38:18;;;;;;;10.23;4.85;;;;;;;29.42;41.86;100011.23;1738709;82;21226;-79
2022/06/30 10:41:24;;;;;;;9.23;5.40;;;;;;;29.45;41.73;100010.59;1740276;82;21206;-80
2022/06/30 10:44:32;;;;;;;11.85;5.35;;;;;;;29.35;41.76;100005.98;1739270;82;21234;-80
2022/06/30 10:47:38;;;;;;;11.60;6.05;;;;;;;29.05;41.95;100000.89;1738248;82;21178;-80
2022/06/30 10:50:47;;;;;;;15.68;6.20;;;;;;;28.80;42.71;99995.07;1738206;82;21211;-80
2022/06/30 10:53:56;;;;;;;12.95;6.22;;;;;;;28.74;43.27;100010.59;1738434;82;21195;-80
2022/06/30 10:57:03;;;;;;;13.78;5.33;;;;;;;28.71;43.00;100010.39;1739627;82;21191;-80
2022/06/30 11:00:09;;;;;;;22.80;6.00;;;;;;;28.66;43.38;99997.81;1739431;82;21274;-79
2022/06/30 11:03:15;;;;;;;15.90;5.05;;;;;;;28.57;43.17;99996.81;1738274;82;21226;-79
2022/06/30 11:06:21;;;;;;;14.65;5.45;;;;;;;28.39;43.57;99994.25;1738363;82;21191;-79
2022/06/30 11:09:26;;;;;;;15.28;5.10;;;;;;;28.23;43.83;99986.53;1738193;82;21194;-79
2022/06/30 11:12:43;;;;;;;14.50;5.70;;;;;;;28.08;44.37;99993.20;1716006;82;21235;-79
2022/06/30 11:15:58;;;;;;;11.88;5.10;;;;;;;28.01;44.41;99984.31;1738894;82;21218;-79
2022/06/30 11:19:07;;;;;;;15.15;5.58;;;;;;;27.93;44.64;99983.55;1738199;82;21238;-79
2022/06/30 11:22:14;;;;;;;13.95;5.75;;;;;;;27.84;45.07;99983.94;1739739;82;21186;-79
2022/06/30 11:28:48;;;;;;;12.45;5.67;;;;;;;27.53;46.45;99982.86;1758630;80;21275;-79
2022/06/30 11:31:54;;;;;;;19.40;5.60;;;;;;;27.46;46.91;99987.41;1769795;81;21271;-79
2022/06/30 11:35:00;;;;;;;8.30;4.97;;;;;;;27.47;46.88;99995.25;1771050;81;21220;-79
2022/06/30 11:38:06;;;;;;;8.38;5.10;;;;;;;27.45;46.93;99990.52;1783935;79;21162;-79
2022/06/30 11:44:40;;;;;;;11.28;5.55;;;;;;;27.32;47.89;99988.39;1775622;79;21157;-79
2022/06/30 11:47:46;;;;;;;10.05;4.75;;;;;;;27.19;48.12;99992.14;1778828;79;21169;-79
2022/06/30 11:50:52;;;;;;;9.30;4.30;;;;;;;27.01;48.96;99995.09;1763569;79;21363;-79
2022/06/30 11:53:57;;;;;;;11.15;4.72;;;;;;;26.94;49.01;99986.16;1780569;79;21176;-79
2022/06/30 11:57:04;;;;;;;13.22;5.45;;;;;;;26.97;48.84;99986.98;1785427;79;22450;-79
2022/06/30 12:00:14;;;;;;;10.25;4.78;;;;;;;26.93;48.07;99990.66;1802576;79;21728;-80
2022/06/30 12:03:22;;;;;;;9.50;4.33;;;;;;;26.78;49.14;99989.38;1802340;79;21296;-79
2022/06/30 12:06:27;;;;;;;10.50;5.28;;;;;;;26.72;48.14;99988.02;1785290;79;21185;-79
2022/06/30 12:09:33;;;;;;;10.13;5.15;;;;;;;26.65;47.94;99987.48;1802733;79;21228;-79
2022/06/30 12:12:40;;;;;;;8.90;5.55;;;;;;;26.56;47.83;99983.63;1802819;79;21177;-79
2022/06/30 12:15:50;;;;;;;7.45;4.83;;;;;;;26.56;48.88;99979.98;1785346;79;21177;-79
2022/06/30 12:18:55;;;;;;;6.70;4.00;;;;;;;26.61;49.17;99981.34;1785706;79;21717;-79
2022/06/30 12:22:03;;;;;;;13.40;4.83;;;;;;;26.67;48.81;99976.80;1802696;79;21170;-79
2022/06/30 12:25:03;;;;;;;7.92;4.78;;;;;;;26.65;48.23;99980.48;1801394;79;21212;-79
2022/06/30 12:28:03;;;;;;;8.38;3.90;;;;;;;26.66;47.49;99977.94;1802607;79;21157;-79
2022/06/30 12:31:08;;;;;;;13.10;4.40;;;;;;;26.70;47.97;99974.83;1801137;79;21215;-79
2022/06/30 12:34:14;;;;;;;8.15;4.00;;;;;;;26.82;48.27;99977.82;1801119;79;21165;-79
2022/06/30 12:37:20;;;;;;;12.98;4.40;;;;;;;26.93;47.33;99978.03;1802734;79;21173;-79
2022/06/30 12:40:28;;;;;;;11.18;5.15;;;;;;;26.86;47.20;99971.91;1802770;79;21181;-79
2022/06/30 12:43:34;;;;;;;15.85;4.90;;;;;;;26.85;46.65;99973.04;1802713;79;21803;-79
2022/06/30 12:46:49;;;;;;;12.00;4.20;;;;;;;26.81;46.11;99976.16;1784161;79;21200;-79
2022/06/30 12:49:55;;;;;;;9.55;4.95;;;;;;;26.82;46.49;99970.81;1803139;79;21196;-79
2022/06/30 12:53:01;;;;;;;8.43;4.75;;;;;;;26.83;46.36;99969.70;1802540;79;21205;-79
2022/06/30 12:56:17;;;;;;;17.05;5.15;;;;;;;26.79;46.37;99961.59;1802675;79;21185;-79
2022/06/30 12:59:22;;;;;;;8.28;4.03;;;;;;;26.78;46.98;99964.13;1802960;79;21213;-79
2022/06/30 13:02:20;;;;;;;14.47;4.65;;;;;;;26.82;46.60;99964.66;1802163;79;21192;-79
2022/06/30 13:05:19;;;;;;;13.40;4.83;;;;;;;26.84;46.31;99957.34;1801393;79;21185;-79
2022/06/30 13:08:26;;;;;;;17.55;6.00;;;;;;;26.96;45.36;99969.01;1802640;79;21157;-79
2022/06/30 13:11:34;;;;;;;8.98;4.67;;;;;;;27.03;44.37;99964.48;1802627;79;21181;-79
2022/06/30 13:14:42;;;;;;;7.85;3.98;;;;;;;27.03;44.57;99964.48;1802109;79;21184;-79
2022/06/30 13:17:48;;;;;;;16.65;3.90;;;;;;;27.09;44.83;99964.16;1802123;79;21216;-79
2022/06/30 13:20:56;;;;;;;9.68;4.00;;;;;;;27.15;45.05;99955.16;1802683;79;21795;-79
2022/06/30 13:24:02;;;;;;;10.88;5.10;;;;;;;27.29;44.66;99965.10;1802746;79;21169;-79
2022/06/30 13:27:12;;;;;;;13.55;4.87;;;;;;;27.36;43.67;99958.02;1801270;79;21169;-79
2022/06/30 13:30:16;;;;;;;5.83;4.15;;;;;;;27.38;43.27;99973.99;1801912;79;21850;-79
2022/06/30 13:33:23;;;;;;;13.90;4.33;;;;;;;27.36;42.27;99974.03;1810308;79;21803;-79
2022/06/30 13:36:32;;;;;;;10.28;4.80;;;;;;;27.26;42.60;99973.56;1810848;79;21177;-79
2022/06/30 13:39:37;;;;;;;7.20;2.90;;;;;;;27.24;42.30;99968.26;1811374;79;21719;-79
2022/06/30 13:42:43;;;;;;;6.15;3.17;;;;;;;27.24;40.95;99976.68;1811032;79;21161;-79
2022/06/30 13:45:48;;;;;;;5.87;2.90;;;;;;;27.16;39.92;99974.50;1809994;79;21259;-79
2022/06/30 13:48:55;;;;;;;7.05;3.02;;;;;;;27.06;39.54;99969.52;1777528;80;21283;-79
2022/06/30 13:52:00;;;;;;;12.80;3.35;;;;;;;26.88;40.27;99968.26;1776744;80;21192;-79
2022/06/30 13:55:06;;;;;;;6.10;2.85;;;;;;;26.75;41.07;99960.77;1801849;79;21201;-80
2022/06/30 13:58:11;;;;;;;4.47;2.60;;;;;;;26.64;41.17;99980.21;1810053;79;21212;-80
2022/06/30 14:01:17;;;;;;;6.10;2.62;;;;;;;26.51;41.24;99975.24;1810518;79;21232;-80
2022/06/30 14:04:22;;;;;;;7.78;2.50;;;;;;;26.42;41.39;99967.13;1811357;79;21204;-80
2022/06/30 14:07:30;;;;;;;9.83;2.50;;;;;;;26.40;40.93;99962.39;1811371;79;21236;-79
2022/06/30 14:10:35;;;;;;;7.78;1.98;;;;;;;26.32;40.68;99978.41;1810790;79;21188;-79
2022/06/30 14:13:41;;;;;;;5.65;2.50;;;;;;;26.20;40.59;99969.76;1780406;79;21181;-79
2022/06/30 14:16:48;;;;;;;9.75;2.40;;;;;;;26.13;40.58;99962.24;1777876;80;21189;-79
2022/06/30 14:19:53;;;;;;;7.65;2.50;;;;;;;26.08;40.01;99974.88;1777290;80;21219;-79
2022/06/30 14:22:58;;;;;;;4.03;2.22;;;;;;;26.05;40.24;99971.24;1780064;80;21213;-79
2022/06/30 14:26:04;;;;;;;9.25;2.15;;;;;;;26.04;40.69;99968.17;1778259;80;21839;-79
2022/06/30 14:29:12;;;;;;;7.65;2.10;;;;;;;26.04;40.85;99962.56;1777391;80;21181;-79
2022/06/30 14:32:17;;;;;;;9.43;2.40;;;;;;;26.06;41.12;99965.91;1782360;80;21268;-79
2022/06/30 14:35:23;;;;;;;9.10;2.52;;;;;;;26.03;41.21;99951.09;1782372;80;21271;-79
2022/06/30 14:38:28;;;;;;;7.80;2.12;;;;;;;25.98;41.15;99970.73;1784148;80;21185;-80